TULLOCH (TUL)

Elevation: 515' · STANISLAUS R basin · Operator: US Bureau of Reclamation

Provisional data, subject to change.
Query executed Tuesday at 14:33:49   clock

Select a sensor type for a plot of data.
Note: Reservoir Flows are daily averages.

Earlier

Date RES ELE    STORAGE    RES CHG    TOC STO    ABV TOC    OUTFLOW    INFLOW    EVAP    RIV REL    SPILL    DIS PWR   
 FEET   AF   AF   AF   AF   CFS   CFS   CFS   CFS   CFS   CFS  
03/01/2015 501.43 56861 -486 57000 -139 262 21 4 0 0 262
03/02/2015 501.08 56475 -386 57000 -525 262 71 4 0 0 262
03/03/2015 500.66 56018 -457 57000 -982 299 71 2 0 0 299
03/04/2015 500.39 55726 -292 57000 -1274 611 468 4 0 0 611
03/05/2015 500.81 56181 455 57000 -819 742 975 4 0 0 742
03/06/2015 500.84 56214 33 57000 -786 707 729 5 0 0 707
03/07/2015 501.14 56541 327 57000 -459 680 849 4 0 0 680
03/08/2015 501.02 56409 -132 57000 -591 676 615 6 0 0 676
03/09/2015 500.48 55823 -586 57000 -1177 676 386 5 0 0 676
03/10/2015 500.46 55802 -21 57000 -1198 674 669 6 0 0 674
03/11/2015 500.33 55661 -141 57000 -1339 676 609 4 0 0 676
03/12/2015 500.45 55791 130 57000 -1209 669 737 2 0 0 669
03/13/2015 500.41 55747 -44 57000 -1253 659 642 5 0 0 659
03/14/2015 500.28 55607 -140 57000 -1393 702 636 5 0 0 702
03/15/2015 499.49 54759 -848 57000 -2241 761 341 8 0 0 761
03/16/2015 500.10 55411 652 57000 -1589 988 1323 6 0 0 988
03/17/2015 498.99 54225 -1186 57000 -2775 1133 540 5 0 0 1133
03/18/2015 499.69 54972 747 57000 -2028 1215 1598 6 0 0 1215
03/19/2015 500.17 55487 515 57000 -1513 1302 1567 5 0 0 1302
03/20/2015 500.08 55390 -97 57000 -1610 1384 1342 7 0 0 1384
03/21/2015 500.28 55607 217 57139 -1532 1421 1536 6 0 0 1421
03/22/2015 499.66 54940 -667 57278 -2338 1407 1078 7 0 0 1407
03/23/2015 499.91 55207 267 57417 -2210 1362 1502 5 0 0 1362
03/24/2015 500.55 55899 692 57556 -1657 3679 4034 6 1789 0 1890
03/25/2015 501.06 56453 554 57694 -1241 2323 2608 6 0 0 2323
03/26/2015 501.61 57060 607 57833 -773 2334 2645 5 0 0 2334
03/27/2015 500.95 56333 -727 57972 -1639 2314 1956 9 0 0 2314
03/28/2015 501.95 57435 1102 -- -- 2038 2602 8 0 0 2038
03/29/2015 502.14 57647 212 -- -- 1770 1885 8 0 0 1770
03/30/2015 502.30 57826 179 -- -- 1544 1642 8 0 0 1544
03/31/2015 -- -- -- -- -- -- -- -- -- -- --

Later | Latest

Warning! This data is preliminary and subject to revision.

Show TUL Map | Plot TUL Data | 1 Month TUL Data | Real-Time TUL Data | TUL Info